createdAt,value
2022-07-26T00:01:43.018Z,1008.2
2022-07-26T00:08:02.980Z,1008.2
2022-07-26T00:14:25.975Z,1008.26
2022-07-26T00:20:45.986Z,1008.26
2022-07-26T00:27:08.973Z,1008.2
2022-07-26T00:33:28.972Z,1008.2
2022-07-26T00:39:51.985Z,1008.24
2022-07-26T00:46:12.023Z,1008.34
2022-07-26T00:52:34.978Z,1008.34
2022-07-26T00:58:54.971Z,1008.36
2022-07-26T01:05:17.988Z,1008.39
2022-07-26T01:11:37.980Z,1008.43
2022-07-26T01:18:00.988Z,1008.45
2022-07-26T01:24:20.974Z,1008.45
2022-07-26T01:30:43.995Z,1008.51
2022-07-26T01:37:03.985Z,1008.55
2022-07-26T01:43:26.974Z,1008.57
2022-07-26T01:49:46.987Z,1008.61
2022-07-26T01:56:09.979Z,1008.67
2022-07-26T02:02:30.082Z,1008.73
2022-07-26T02:08:52.974Z,1008.77
2022-07-26T02:15:12.991Z,1008.81
2022-07-26T02:21:35.979Z,1008.83
2022-07-26T02:27:55.992Z,1008.86
2022-07-26T02:34:18.980Z,1008.92
2022-07-26T02:40:38.986Z,1008.94
2022-07-26T02:47:01.984Z,1008.98
2022-07-26T02:53:21.978Z,1009
2022-07-26T02:59:44.993Z,1009.04
2022-07-26T03:06:04.972Z,1009.06
2022-07-26T03:12:28.016Z,1009.1
2022-07-26T03:18:47.979Z,1009.1
2022-07-26T03:25:10.987Z,1009.12
2022-07-26T03:31:31.029Z,1009.12
2022-07-26T03:37:53.979Z,1009.12
2022-07-26T03:44:13.976Z,1009.14
2022-07-26T03:50:36.998Z,1009.16
2022-07-26T04:13:03.964Z,1009.3
2022-07-26T04:19:26.977Z,1009.35
2022-07-26T04:25:47.025Z,1009.37
2022-07-26T04:32:09.981Z,1009.39
2022-07-26T04:38:30.000Z,1009.45
2022-07-26T04:44:52.972Z,1009.45
2022-07-26T04:51:13.002Z,1009.43
2022-07-26T04:57:35.982Z,1009.43
2022-07-26T05:03:55.971Z,1009.41
2022-07-26T05:10:18.984Z,1009.39
2022-07-26T05:16:39.201Z,1009.45
2022-07-26T05:23:01.990Z,1009.47
2022-07-26T05:29:21.987Z,1009.43
2022-07-26T05:35:45.001Z,1009.41
2022-07-26T05:42:04.992Z,1009.43
2022-07-26T05:48:27.999Z,1009.39
2022-07-26T05:54:47.987Z,1009.43
2022-07-26T06:01:10.978Z,1009.45
2022-07-26T06:07:31.008Z,1009.47
2022-07-26T06:13:56.637Z,1009.49
2022-07-26T06:20:13.988Z,1009.55
2022-07-26T06:26:37.012Z,1009.61
2022-07-26T06:32:56.978Z,1009.65
2022-07-26T06:39:19.998Z,1009.73
2022-07-26T06:45:40.007Z,1009.75
2022-07-26T06:52:02.998Z,1009.8
2022-07-26T06:58:22.986Z,1009.86
2022-07-26T07:04:46.024Z,1009.94
2022-07-26T07:11:05.976Z,1010
2022-07-26T07:17:28.988Z,1010
2022-07-26T07:23:48.975Z,1010.02
2022-07-26T07:30:11.993Z,1010.08
2022-07-26T07:36:31.982Z,1010.16
2022-07-26T07:42:54.981Z,1010.2
2022-07-26T07:49:15.038Z,1010.22
2022-07-26T07:55:40.794Z,1010.25
2022-07-26T08:01:57.984Z,1010.27
2022-07-26T08:08:22.005Z,1010.27
2022-07-26T08:14:41.563Z,1010.22
2022-07-26T08:21:03.981Z,1010.2
2022-07-26T08:27:23.979Z,1010.18
2022-07-26T08:33:47.181Z,1010.22
2022-07-26T08:40:06.977Z,1010.25
2022-07-26T08:46:29.995Z,1010.31
2022-07-26T08:52:49.979Z,1010.31
2022-07-26T08:59:18.732Z,1010.33
2022-07-26T09:05:32.992Z,1010.33
2022-07-26T09:11:55.981Z,1010.33
2022-07-26T09:18:15.980Z,1010.39
2022-07-26T09:24:39.027Z,1010.47
2022-07-26T09:30:59.019Z,1010.51
2022-07-26T09:37:21.987Z,1010.55
2022-07-26T10:00:07.978Z,1010.63
2022-07-26T10:06:30.975Z,1010.63
2022-07-26T10:12:50.985Z,1010.65
2022-07-26T10:19:13.978Z,1010.67
2022-07-26T10:25:33.987Z,1010.65
2022-07-26T10:31:56.974Z,1010.67
2022-07-26T10:38:16.992Z,1010.69
2022-07-26T10:44:39.985Z,1010.69
2022-07-26T10:51:04.458Z,1010.71
2022-07-26T10:57:22.987Z,1010.71
2022-07-26T11:03:42.977Z,1010.71
2022-07-26T11:10:05.988Z,1010.69
2022-07-26T11:16:26.017Z,1010.67
2022-07-26T11:22:48.984Z,1010.69
2022-07-26T11:29:08.995Z,1010.69
2022-07-26T11:35:31.982Z,1010.69
2022-07-26T11:41:51.985Z,1010.65
2022-07-26T11:48:15.195Z,1010.65
2022-07-26T11:54:35.202Z,1010.53
2022-07-26T12:00:57.994Z,1010.49
2022-07-26T12:07:17.982Z,1010.49
2022-07-26T12:13:55.162Z,1010.45
2022-07-26T12:20:01.064Z,1010.39
2022-07-26T12:26:23.972Z,1010.37
2022-07-26T12:32:43.977Z,1010.69
2022-07-26T12:39:06.974Z,1010.97
2022-07-26T12:45:26.981Z,1011.09
2022-07-26T12:51:52.164Z,1011.14
2022-07-26T12:58:11.988Z,1011.07
2022-07-26T13:04:35.052Z,1011.01
2022-07-26T13:10:59.701Z,1010.99
2022-07-26T13:17:18.091Z,1010.95
2022-07-26T13:23:37.983Z,1010.95
2022-07-26T13:30:01.053Z,1010.83
2022-07-26T13:36:20.987Z,1010.77
2022-07-26T13:42:43.981Z,1010.69
2022-07-26T13:49:04.070Z,1010.67
2022-07-26T13:55:26.981Z,1010.65
2022-07-26T14:01:47.094Z,1010.69
2022-07-26T14:08:09.979Z,1010.63
2022-07-26T14:14:29.972Z,1010.53
2022-07-26T14:20:52.978Z,1010.47
2022-07-26T14:27:12.977Z,1010.53
2022-07-26T14:33:35.991Z,1010.49
2022-07-26T14:39:55.986Z,1010.43
2022-07-26T14:46:19.046Z,1010.45
2022-07-26T14:52:38.983Z,1010.37
2022-07-26T14:59:01.982Z,1010.31
2022-07-26T15:05:21.996Z,1010.35
2022-07-26T15:11:45.155Z,1010.29
2022-07-26T15:18:05.193Z,1010.24
2022-07-26T15:24:27.990Z,1010.18
2022-07-26T15:41:10.023Z,1010.31
2022-07-26T15:47:52.725Z,1010.41
2022-07-26T15:53:52.992Z,1010.47
2022-07-26T16:00:15.990Z,1010.63
2022-07-26T16:06:35.982Z,1010.69
2022-07-26T16:12:58.987Z,1010.69
2022-07-26T16:19:18.992Z,1010.73
2022-07-26T16:25:41.995Z,1010.77
2022-07-26T16:32:02.126Z,1010.81
2022-07-26T16:38:24.994Z,1010.79
2022-07-26T16:44:44.977Z,1010.75
2022-07-26T16:51:07.992Z,1010.73
2022-07-26T16:57:27.982Z,1010.77
2022-07-26T17:03:50.985Z,1010.79
2022-07-26T17:10:10.989Z,1010.85
2022-07-26T17:16:34.072Z,1010.85
2022-07-26T17:22:53.986Z,1010.83
2022-07-26T17:29:16.988Z,1010.87
2022-07-26T17:35:36.986Z,1010.89
2022-07-26T17:41:59.977Z,1010.95
2022-07-26T17:48:19.989Z,1010.99
2022-07-26T17:54:42.981Z,1010.97
2022-07-26T18:01:02.979Z,1010.99
2022-07-26T18:07:25.978Z,1011.01
2022-07-26T18:13:45.974Z,1011.09
2022-07-26T18:20:09.000Z,1011.1
2022-07-26T18:26:28.972Z,1011.1
2022-07-26T18:32:52.229Z,1011.09
2022-07-26T18:39:12.402Z,1011.09
2022-07-26T18:45:34.996Z,1011.07
2022-07-26T18:51:54.988Z,1011.07
2022-07-26T18:58:18.078Z,1011.1
2022-07-26T19:04:38.023Z,1011.16
2022-07-26T19:11:00.977Z,1011.26
2022-07-26T19:17:20.984Z,1011.34
2022-07-26T19:23:43.971Z,1011.4
2022-07-26T19:30:03.972Z,1011.51
2022-07-26T19:36:26.993Z,1011.55
2022-07-26T19:42:46.979Z,1011.57
2022-07-26T19:49:10.266Z,1011.63
2022-07-26T19:55:29.979Z,1011.67
2022-07-26T20:01:53.142Z,1011.75
2022-07-26T20:08:12.983Z,1011.81
2022-07-26T20:14:36.006Z,1011.83
2022-07-26T20:20:55.987Z,1011.87
2022-07-26T20:27:18.975Z,1011.96
2022-07-26T20:33:38.990Z,1011.96
2022-07-26T20:40:01.984Z,1012.04
2022-07-26T20:46:22.038Z,1012.1
2022-07-26T20:52:44.984Z,1012.14
2022-07-26T20:59:04.973Z,1012.18
2022-07-26T21:21:53.975Z,1012.34
2022-07-26T21:28:16.980Z,1012.34
2022-07-26T21:34:37.018Z,1012.4
2022-07-26T21:40:59.973Z,1012.42
2022-07-26T21:47:19.980Z,1012.43
2022-07-26T21:53:42.974Z,1012.47
2022-07-26T22:00:02.973Z,1012.51
2022-07-26T22:22:59.970Z,1012.63
2022-07-26T22:29:19.991Z,1012.61
2022-07-26T22:35:42.977Z,1012.65
2022-07-26T22:42:15.136Z,1012.65
2022-07-26T22:48:25.986Z,1012.67
2022-07-26T22:54:45.970Z,1012.67
2022-07-26T23:01:09.042Z,1012.65
2022-07-26T23:07:28.991Z,1012.67
2022-07-26T23:13:51.966Z,1012.71
2022-07-26T23:20:11.981Z,1012.75
2022-07-26T23:26:34.974Z,1012.77
2022-07-26T23:32:54.982Z,1012.75
2022-07-26T23:39:17.977Z,1012.71
2022-07-26T23:45:37.976Z,1012.75
2022-07-26T23:52:00.973Z,1012.75
2022-07-26T23:58:20.995Z,1012.73
